createdAt,value
2023-03-23T15:57:53.612Z,45.03
2023-03-23T15:59:55.223Z,45.02
2023-03-23T16:01:57.653Z,45.33
2023-03-23T16:04:23.554Z,45.07
2023-03-23T16:06:27.597Z,45.26
2023-03-23T16:08:29.463Z,45.18
2023-03-23T16:10:31.180Z,45.40
2023-03-23T16:12:32.961Z,45.00
2023-03-23T16:14:34.493Z,45.50
2023-03-23T16:16:47.922Z,45.15
2023-03-23T16:18:51.344Z,45.15
2023-03-23T16:20:52.942Z,45.26
2023-03-23T16:22:54.846Z,44.81
2023-03-23T16:24:56.277Z,45.11
2023-03-23T16:26:57.778Z,45.04
2023-03-23T16:29:09.924Z,45.14
2023-03-23T16:31:16.360Z,45.40
2023-03-23T16:33:21.288Z,45.43
2023-03-23T16:35:22.763Z,45.42
2023-03-23T16:37:24.612Z,44.92
2023-03-23T16:39:29.130Z,45.04
2023-03-23T16:41:31.415Z,45.14
2023-03-23T16:43:32.985Z,45.02
2023-03-23T16:45:35.375Z,44.82
2023-03-23T16:47:37.468Z,45.42
2023-03-23T16:49:39.271Z,45.06
2023-03-23T16:51:42.892Z,45.13
2023-03-23T16:53:44.525Z,45.25
2023-03-23T16:55:48.292Z,45.10
2023-03-23T16:57:49.931Z,45.33
2023-03-23T16:59:51.923Z,45.45
2023-03-23T17:01:53.522Z,45.31
2023-03-23T17:03:55.805Z,45.28
2023-03-23T17:06:00.184Z,45.49
2023-03-23T17:08:02.150Z,45.31
2023-03-23T17:10:04.236Z,45.46
2023-03-23T17:12:06.241Z,45.64
2023-03-23T17:14:07.709Z,45.41
2023-03-23T17:16:09.314Z,45.73
2023-03-23T17:18:11.202Z,45.85
2023-03-23T17:20:13.623Z,45.84
2023-03-23T17:22:15.505Z,45.84
2023-03-23T17:24:17.950Z,45.63
2023-03-23T17:26:19.931Z,45.85
2023-03-23T17:28:21.635Z,45.84
2023-03-23T17:30:26.377Z,45.86
2023-03-23T17:32:28.056Z,45.79
2023-03-23T17:34:29.687Z,45.96
2023-03-23T17:36:31.379Z,45.87
2023-03-23T17:38:32.917Z,46.06
2023-03-23T17:40:34.720Z,45.95
2023-03-23T17:42:37.674Z,46.06
2023-03-23T17:44:39.778Z,45.85
2023-03-23T17:46:41.370Z,45.82
2023-03-23T17:48:42.869Z,46.02
2023-03-23T17:50:54.999Z,46.04
2023-03-23T17:52:57.143Z,46.05
2023-03-23T17:54:58.884Z,46.26
2023-03-23T17:57:06.412Z,46.17
2023-03-23T17:59:08.193Z,46.35
2023-03-23T18:01:09.869Z,46.29
2023-03-23T18:03:11.719Z,46.17
2023-03-23T18:05:14.110Z,46.15
2023-03-23T18:07:15.722Z,46.10
2023-03-23T18:09:17.245Z,46.18
2023-03-23T18:11:19.048Z,46.30
2023-03-23T18:13:21.848Z,46.46
2023-03-23T18:15:31.696Z,46.42
2023-03-23T18:17:36.141Z,46.31
2023-03-23T18:19:37.821Z,46.45
2023-03-23T18:21:39.395Z,46.53
2023-03-23T18:23:49.321Z,46.39
2023-03-23T18:25:55.257Z,46.40
2023-03-23T18:28:06.861Z,46.37
2023-03-23T18:30:09.778Z,46.32
2023-03-23T18:32:11.789Z,46.65
2023-03-23T18:34:13.582Z,46.57
2023-03-23T18:36:18.119Z,46.65
2023-03-23T18:38:19.835Z,46.71
2023-03-23T18:40:24.160Z,46.62
2023-03-23T18:42:29.375Z,46.97
2023-03-23T18:44:31.218Z,46.92
2023-03-23T18:46:33.467Z,46.97
2023-03-23T18:48:36.111Z,46.64
2023-03-23T18:50:37.872Z,46.81
2023-03-23T18:52:39.406Z,46.75
2023-03-23T18:54:46.789Z,46.68
2023-03-23T18:56:50.425Z,46.50
2023-03-23T18:58:53.396Z,46.82
2023-03-23T19:01:42.006Z,47.13
2023-03-23T19:03:45.886Z,47.01
2023-03-23T19:05:56.075Z,47.15
2023-03-23T19:07:58.042Z,47.07
2023-03-23T19:09:59.662Z,47.29
2023-03-23T19:12:01.239Z,47.12
2023-03-23T19:14:03.927Z,47.41
2023-03-23T19:16:14.437Z,47.46
2023-03-23T19:18:16.331Z,47.35
2023-03-23T19:20:30.231Z,47.60
2023-03-23T19:22:40.495Z,47.47
2023-03-23T19:24:42.338Z,47.39
2023-03-23T19:26:46.482Z,47.89
2023-03-23T19:29:23.378Z,47.74
2023-03-23T19:31:11.193Z,47.75
2023-03-23T19:33:13.595Z,47.82
2023-03-23T19:35:16.679Z,47.62
2023-03-23T19:37:20.386Z,47.64
2023-03-23T19:39:29.226Z,47.45
2023-03-23T19:41:31.710Z,47.41
2023-03-23T19:43:33.733Z,47.35
2023-03-23T19:45:36.333Z,47.36
2023-03-23T19:47:40.476Z,47.37
2023-03-23T19:49:42.023Z,47.34
2023-03-23T19:51:43.644Z,47.07
2023-03-23T19:53:46.087Z,47.23
2023-03-23T19:55:51.213Z,47.30
2023-03-23T19:57:53.160Z,47.14
2023-03-23T19:59:54.891Z,47.20
2023-03-23T20:01:58.924Z,47.14
2023-03-23T20:04:04.719Z,47.07
2023-03-23T20:06:12.264Z,47.03
2023-03-23T20:08:14.898Z,47.10
2023-03-23T20:10:19.652Z,47.12
2023-03-23T20:12:21.902Z,47.19
2023-03-23T20:14:23.681Z,47.14
2023-03-23T20:16:25.626Z,47.10
2023-03-23T20:18:29.177Z,47.16
2023-03-23T20:20:31.982Z,47.14
2023-03-23T20:22:34.501Z,47.02
2023-03-23T20:24:38.118Z,47.24
2023-03-23T20:26:42.436Z,47.12
2023-03-23T20:28:47.707Z,47.22
2023-03-23T20:31:23.247Z,47.13
2023-03-23T20:33:26.526Z,47.27
2023-03-23T20:35:29.396Z,47.43
2023-03-23T20:37:32.053Z,47.30
2023-03-23T20:39:34.121Z,47.30
2023-03-23T20:41:36.777Z,47.28
2023-03-23T20:43:43.515Z,47.30
2023-03-23T20:45:45.751Z,47.46
2023-03-23T20:47:54.049Z,47.24
2023-03-23T20:49:56.101Z,47.33
2023-03-23T20:51:58.580Z,47.56
2023-03-23T20:54:02.038Z,47.38
2023-03-23T20:56:08.579Z,47.45
2023-03-23T20:58:12.246Z,47.35
2023-03-23T21:00:16.195Z,47.43
2023-03-23T21:02:19.639Z,47.46
2023-03-23T21:04:27.744Z,47.60
2023-03-23T21:06:31.013Z,47.46
2023-03-23T21:08:34.877Z,47.42
2023-03-23T21:10:37.717Z,47.85
2023-03-23T21:12:39.288Z,47.90
2023-03-23T21:14:41.347Z,47.78
2023-03-23T21:16:43.685Z,47.55
2023-03-23T21:18:45.991Z,47.59
2023-03-23T21:20:50.556Z,47.68
2023-03-23T21:22:52.388Z,47.64
2023-03-23T21:24:53.981Z,47.52
2023-03-23T21:26:58.111Z,47.52
2023-03-23T21:29:00.454Z,47.60
2023-03-23T21:31:04.946Z,47.64
2023-03-23T21:33:09.140Z,47.56
2023-03-23T21:35:11.172Z,47.88
2023-03-23T21:37:16.223Z,47.79
2023-03-23T21:39:19.344Z,47.91
2023-03-23T21:41:22.249Z,47.87
2023-03-23T21:43:27.411Z,47.76
2023-03-23T21:45:29.394Z,48.03
2023-03-23T21:47:34.053Z,47.94
2023-03-23T21:49:35.775Z,47.88
2023-03-23T21:51:43.300Z,47.90
2023-03-23T21:53:46.970Z,47.81
2023-03-23T21:55:53.003Z,47.92
2023-03-23T21:57:54.444Z,47.86
2023-03-23T21:59:56.410Z,47.87
2023-03-23T22:01:59.872Z,47.97
2023-03-23T22:04:04.826Z,48.05
2023-03-23T22:06:13.215Z,47.81
2023-03-23T22:08:14.747Z,47.96
2023-03-23T22:10:19.059Z,48.20
2023-03-23T22:12:21.739Z,48.17
2023-03-23T22:14:23.519Z,47.96
2023-03-23T22:16:26.344Z,48.05
2023-03-23T22:18:28.652Z,47.96
2023-03-23T22:20:30.909Z,48.01
2023-03-23T22:22:32.750Z,48.08
2023-03-23T22:24:34.390Z,48.02
2023-03-23T22:26:36.391Z,47.98
2023-03-23T22:28:39.170Z,48.02
2023-03-23T22:30:40.689Z,47.97
2023-03-23T22:32:42.544Z,47.96
2023-03-23T22:34:44.305Z,47.82
2023-03-23T22:36:46.159Z,48.07
2023-03-23T22:38:48.245Z,47.96
2023-03-23T22:40:57.956Z,47.88
2023-03-23T22:42:59.420Z,47.92
2023-03-23T22:45:01.032Z,47.84
2023-03-23T22:47:02.673Z,47.90
2023-03-23T22:49:04.323Z,47.82
2023-03-23T22:51:06.115Z,47.70
2023-03-23T22:53:15.210Z,47.65
2023-03-23T22:55:16.848Z,47.81
2023-03-23T22:57:18.672Z,47.75
2023-03-23T22:59:20.224Z,47.71
2023-03-23T23:01:23.150Z,47.83
2023-03-23T23:03:25.711Z,47.78
2023-03-23T23:05:27.157Z,47.70
2023-03-23T23:07:28.789Z,47.77
2023-03-23T23:09:30.265Z,47.92
2023-03-23T23:11:31.850Z,47.93
2023-03-23T23:13:33.703Z,48.02
2023-03-23T23:15:36.047Z,47.91
2023-03-23T23:17:38.691Z,47.83
2023-03-23T23:19:40.268Z,47.85
2023-03-23T23:21:41.770Z,48.00
2023-03-23T23:23:43.370Z,47.86
2023-03-23T23:25:51.637Z,47.64
2023-03-23T23:27:53.246Z,47.79
2023-03-23T23:29:54.831Z,47.91
2023-03-23T23:31:56.418Z,47.88
2023-03-23T23:34:02.177Z,47.89
2023-03-23T23:36:04.100Z,47.57
2023-03-23T23:38:06.993Z,48.00
2023-03-23T23:40:09.520Z,48.07
2023-03-23T23:42:11.564Z,47.91
2023-03-23T23:44:13.332Z,47.94
2023-03-23T23:46:15.067Z,47.80
2023-03-23T23:48:16.846Z,47.93
2023-03-23T23:50:18.998Z,47.95
2023-03-23T23:52:21.014Z,47.94
2023-03-23T23:54:22.662Z,48.08
2023-03-23T23:56:25.322Z,47.92
2023-03-23T23:58:26.798Z,47.86
